createdAt,value
2023-03-05T00:00:38.332Z,62.150
2023-03-05T00:01:29.221Z,62.100
2023-03-05T00:02:51.951Z,63.700
2023-03-05T00:03:49.741Z,64.400
2023-03-05T00:04:37.319Z,67.100
2023-03-05T00:05:24.980Z,62.300
2023-03-05T00:06:32.693Z,61.000
2023-03-05T00:07:51.384Z,63.300
2023-03-05T00:09:12.172Z,63.400
2023-03-05T00:09:51.640Z,62.100
2023-03-05T00:11:03.518Z,62.900
2023-03-05T00:11:36.750Z,64.500
2023-03-05T00:12:33.130Z,62.350
2023-03-05T00:13:54.169Z,62.000
2023-03-05T00:14:49.460Z,61.450
2023-03-05T00:15:36.905Z,65.100
2023-03-05T00:16:27.366Z,61.100
2023-03-05T00:17:25.356Z,60.500
2023-03-05T00:18:42.920Z,62.750
2023-03-05T00:19:54.740Z,60.500
2023-03-05T00:20:57.218Z,59.200
2023-03-05T00:21:51.381Z,60.200
2023-03-05T00:22:38.600Z,60.000
2023-03-05T00:23:25.018Z,61.900
2023-03-05T00:24:27.960Z,61.000
2023-03-05T00:25:22.143Z,60.200
2023-03-05T00:26:32.971Z,59.650
2023-03-05T00:28:00.552Z,63.700
2023-03-05T00:28:23.585Z,59.550
2023-03-05T00:29:40.823Z,63.700
2023-03-05T00:30:28.966Z,64.500
2023-03-05T00:31:31.635Z,61.500
2023-03-05T00:32:28.047Z,59.500
2023-03-05T00:33:34.263Z,59.500
2023-03-05T00:34:21.134Z,61.000
2023-03-05T00:35:42.630Z,61.200
2023-03-05T00:36:43.833Z,61.000
2023-03-05T00:37:30.296Z,59.900
2023-03-05T00:38:35.946Z,59.300
2023-03-05T00:39:20.504Z,61.750
2023-03-05T00:40:23.346Z,61.900
2023-03-05T00:41:23.999Z,58.800
2023-03-05T00:43:03.631Z,57.950
2023-03-05T00:43:46.655Z,59.600
2023-03-05T00:44:33.841Z,58.700
2023-03-05T00:45:25.404Z,61.600
2023-03-05T00:46:33.289Z,57.600
2023-03-05T00:47:27.250Z,55.250
2023-03-05T00:48:29.775Z,58.100
2023-03-05T00:50:08.205Z,56.500
2023-03-05T00:50:49.862Z,55.500
2023-03-05T00:51:32.475Z,57.600
2023-03-05T00:52:24.021Z,57.900
2023-03-05T00:53:36.908Z,54.000
2023-03-05T00:54:31.813Z,55.600
2023-03-05T00:55:23.351Z,56.000
2023-03-05T00:56:22.066Z,56.200
2023-03-05T00:57:37.149Z,54.150
2023-03-05T00:58:39.726Z,57.700
2023-03-05T00:59:28.957Z,56.100
2023-03-05T01:00:43.012Z,53.150
2023-03-05T01:01:34.051Z,58.500
2023-03-05T01:02:30.175Z,54.850
2023-03-05T01:03:21.541Z,54.900
2023-03-05T01:04:54.724Z,56.700
2023-03-05T01:05:42.410Z,58.150
2023-03-05T01:06:29.585Z,53.000
2023-03-05T01:07:19.551Z,54.900
2023-03-05T01:08:34.347Z,53.300
2023-03-05T01:09:33.517Z,54.800
2023-03-05T01:10:29.261Z,57.200
2023-03-05T01:12:00.927Z,53.300
2023-03-05T01:12:46.691Z,54.600
2023-03-05T01:13:28.559Z,52.700
2023-03-05T01:14:42.967Z,50.950
2023-03-05T01:15:44.411Z,51.700
2023-03-05T01:16:37.952Z,50.800
2023-03-05T01:17:28.466Z,54.200
2023-03-05T01:18:22.002Z,55.300
2023-03-05T01:19:29.555Z,54.650
2023-03-05T01:20:35.116Z,49.700
2023-03-05T01:21:23.006Z,46.800
2023-03-05T01:22:48.902Z,50.300
2023-03-05T01:23:43.771Z,52.500
2023-03-05T01:24:22.799Z,49.900
2023-03-05T01:25:26.301Z,47.000
2023-03-05T01:26:48.128Z,49.400
2023-03-05T01:27:37.122Z,49.600
2023-03-05T01:28:27.568Z,49.500
2023-03-05T01:29:53.276Z,52.200
2023-03-05T01:30:28.163Z,52.300
2023-03-05T01:31:41.226Z,54.300
2023-03-05T01:32:29.904Z,55.500
2023-03-05T01:33:24.410Z,52.500
2023-03-05T01:34:41.389Z,51.400
2023-03-05T01:35:29.608Z,52.850
2023-03-05T01:36:31.631Z,51.200
2023-03-05T01:37:50.863Z,51.900
2023-03-05T01:38:35.916Z,49.800
2023-03-05T01:39:23.882Z,51.400
2023-03-05T01:40:28.915Z,48.500
2023-03-05T01:41:23.388Z,50.850
2023-03-05T01:42:30.100Z,51.100
2023-03-05T01:43:50.397Z,51.250
2023-03-05T01:44:54.567Z,49.800
2023-03-05T01:45:39.481Z,51.200
2023-03-05T01:46:25.917Z,51.300
2023-03-05T01:47:27.992Z,50.900
2023-03-05T01:48:24.847Z,55.150
2023-03-05T01:49:33.023Z,48.400
2023-03-05T01:50:19.885Z,48.600
2023-03-05T01:51:57.834Z,52.900
2023-03-05T01:52:20.188Z,51.400
2023-03-05T01:53:29.611Z,51.900
2023-03-05T01:54:32.932Z,52.000
2023-03-05T01:55:30.743Z,51.250
2023-03-05T01:56:22.965Z,48.550
2023-03-05T01:57:23.114Z,47.600
2023-03-05T01:58:25.332Z,50.700
2023-03-05T01:59:39.890Z,48.800
2023-03-05T02:00:33.672Z,50.100
2023-03-05T02:01:38.734Z,49.600
2023-03-05T02:09:24.838Z,47.900
2023-03-05T02:15:25.931Z,48.400
2023-03-05T02:16:46.287Z,47.700
2023-03-05T02:17:50.975Z,45.800
2023-03-05T02:18:26.089Z,44.800
2023-03-05T02:19:20.732Z,49.300
2023-03-05T02:20:19.364Z,45.100
2023-03-05T02:21:34.654Z,46.750
2023-03-05T02:22:31.462Z,49.700
2023-03-05T02:23:41.852Z,46.800
2023-03-05T02:24:34.831Z,46.400
2023-03-05T02:25:28.708Z,46.400
2023-03-05T02:26:26.792Z,45.500
2023-03-05T02:27:37.226Z,42.900
2023-03-05T02:28:44.939Z,43.600
2023-03-05T02:29:32.565Z,47.000
2023-03-05T02:30:47.645Z,45.350
2023-03-05T02:31:40.368Z,47.200
2023-03-05T02:32:33.623Z,46.100
2023-03-05T02:33:26.098Z,42.600
2023-03-05T02:34:22.000Z,48.200
2023-03-05T02:35:47.975Z,43.300
2023-03-05T02:36:35.216Z,44.000
2023-03-05T02:37:23.012Z,46.300
2023-03-05T02:38:35.578Z,46.250
2023-03-05T02:39:37.410Z,40.200
2023-03-05T02:40:31.825Z,44.700
2023-03-05T02:41:22.386Z,41.250
2023-03-05T02:42:51.156Z,44.700
2023-03-05T02:43:29.054Z,45.200
2023-03-05T02:44:22.849Z,43.250
2023-03-05T02:45:48.129Z,45.600
2023-03-05T02:46:41.214Z,43.550
2023-03-05T02:47:35.423Z,44.600
2023-03-05T02:48:27.457Z,46.000
2023-03-05T02:49:23.542Z,44.050
2023-03-05T02:50:40.566Z,44.100
2023-03-05T02:51:29.160Z,45.800
2023-03-05T02:52:52.950Z,44.900
2023-03-05T02:53:45.992Z,48.500
2023-03-05T02:54:24.891Z,43.300
2023-03-05T02:55:22.820Z,41.900
2023-03-05T02:56:22.700Z,41.900
2023-03-05T02:57:21.816Z,45.100
2023-03-05T02:58:29.036Z,44.800
2023-03-05T02:59:56.689Z,43.900
2023-03-05T03:00:29.389Z,45.200
2023-03-05T03:01:39.516Z,43.200
2023-03-05T03:02:25.034Z,44.700
2023-03-05T03:03:29.202Z,41.450
2023-03-05T03:04:19.820Z,44.050
2023-03-05T03:05:22.022Z,44.700
2023-03-05T03:06:33.226Z,40.700
2023-03-05T03:07:47.692Z,41.300
2023-03-05T03:08:42.365Z,43.400
2023-03-05T03:09:30.294Z,42.700
2023-03-05T03:10:31.289Z,41.500
2023-03-05T03:11:25.416Z,42.950
2023-03-05T03:12:24.158Z,42.600
2023-03-05T03:13:22.854Z,40.600
2023-03-05T03:14:57.991Z,41.050
2023-03-05T03:15:44.643Z,44.400
2023-03-05T03:16:30.310Z,39.000
2023-03-05T03:17:30.648Z,42.200
2023-03-05T03:18:29.078Z,40.950
2023-03-05T03:19:22.394Z,38.900
2023-03-05T03:20:19.698Z,41.900
2023-03-05T03:22:22.029Z,40.550
2023-03-05T03:23:36.899Z,43.400
2023-03-05T03:24:22.405Z,41.600
2023-03-05T03:25:31.624Z,43.600
2023-03-05T03:26:26.657Z,41.350
2023-03-05T03:27:23.667Z,40.200
2023-03-05T03:28:28.175Z,40.700
2023-03-05T03:29:42.270Z,40.500
2023-03-05T03:30:38.920Z,39.000
2023-03-05T03:31:25.340Z,36.800
2023-03-05T03:32:35.834Z,38.500
2023-03-05T03:33:28.692Z,44.800
2023-03-05T03:34:24.132Z,40.000
2023-03-05T03:35:20.822Z,41.900
2023-03-05T03:36:54.133Z,38.500
2023-03-05T03:37:41.208Z,39.600
2023-03-05T03:38:49.229Z,36.800
2023-03-05T03:39:25.942Z,39.450
2023-03-05T03:40:35.574Z,41.400
2023-03-05T03:41:30.327Z,40.000
2023-03-05T03:42:22.830Z,42.000
2023-03-05T03:43:56.415Z,39.200
2023-03-05T03:44:43.357Z,40.600
2023-03-05T03:45:52.539Z,35.300
2023-03-05T03:46:45.056Z,37.500
2023-03-05T03:47:37.962Z,41.900
2023-03-05T03:48:32.319Z,41.700
2023-03-05T03:49:26.083Z,35.500
2023-03-05T03:50:22.788Z,37.800
2023-03-05T03:51:35.771Z,37.800
2023-03-05T03:52:32.108Z,40.800
2023-03-05T03:53:21.300Z,38.550
2023-03-05T03:54:42.524Z,36.850
2023-03-05T03:55:34.046Z,39.400
2023-03-05T03:56:30.000Z,36.700
2023-03-05T03:57:19.717Z,38.000
2023-03-05T03:58:19.664Z,39.650
2023-03-05T03:59:36.774Z,39.200
2023-03-05T04:00:22.970Z,40.600
2023-03-05T04:01:47.052Z,40.650
2023-03-05T04:02:32.716Z,40.000
2023-03-05T04:03:32.491Z,38.900
2023-03-05T04:04:23.951Z,39.500
2023-03-05T04:05:28.849Z,38.950
2023-03-05T04:06:41.883Z,41.100
2023-03-05T04:07:31.752Z,38.300
2023-03-05T04:08:42.458Z,36.500
2023-03-05T04:09:49.324Z,36.000
2023-03-05T04:10:41.363Z,37.800
2023-03-05T04:11:38.248Z,38.000
2023-03-05T04:12:25.427Z,39.000
2023-03-05T04:13:24.567Z,40.150
2023-03-05T04:14:45.163Z,37.600
2023-03-05T04:16:00.802Z,39.300
2023-03-05T04:16:51.496Z,36.800
2023-03-05T04:17:43.133Z,36.500
2023-03-05T04:18:21.959Z,36.200
2023-03-05T04:19:27.233Z,36.200
2023-03-05T04:20:27.230Z,36.300
2023-03-05T04:21:35.753Z,41.700
2023-03-05T04:23:01.041Z,41.000
2023-03-05T04:23:56.064Z,41.600
2023-03-05T04:24:27.041Z,42.200
2023-03-05T04:25:28.137Z,38.300
2023-03-05T04:26:29.881Z,41.400
2023-03-05T04:27:23.936Z,36.250
2023-03-05T04:28:22.523Z,37.550
2023-03-05T04:30:30.214Z,37.300
2023-03-05T04:31:57.098Z,38.500
2023-03-05T04:32:47.916Z,35.700
2023-03-05T04:33:35.355Z,38.500
2023-03-05T04:34:31.436Z,39.150
2023-03-05T04:35:29.859Z,39.800
2023-03-05T04:36:25.759Z,40.000
2023-03-05T04:37:54.823Z,40.500
2023-03-05T04:38:52.157Z,39.700
2023-03-05T04:39:49.853Z,43.100
2023-03-05T04:40:27.498Z,40.300
2023-03-05T04:41:34.953Z,36.200
2023-03-05T04:42:27.453Z,37.950
2023-03-05T04:43:28.687Z,40.100
2023-03-05T04:45:15.875Z,39.300
2023-03-05T04:45:52.013Z,41.200
2023-03-05T04:46:39.482Z,37.600
2023-03-05T04:47:24.596Z,40.050
2023-03-05T04:48:36.747Z,42.500
2023-03-05T04:49:30.887Z,38.450
2023-03-05T04:50:22.156Z,43.600
2023-03-05T04:51:22.634Z,36.800
2023-03-05T04:52:24.719Z,37.650
2023-03-05T04:53:39.385Z,35.200
2023-03-05T04:54:29.638Z,39.100
2023-03-05T04:55:37.906Z,36.600
2023-03-05T04:56:32.053Z,37.400
2023-03-05T04:57:24.256Z,36.700
2023-03-05T04:58:29.202Z,36.400
2023-03-05T04:59:43.904Z,38.500
2023-03-05T05:00:42.514Z,37.850
2023-03-05T05:01:50.811Z,38.200
2023-03-05T05:02:43.443Z,38.000
2023-03-05T05:03:22.671Z,34.700
2023-03-05T05:04:29.243Z,33.400
2023-03-05T05:05:25.089Z,33.600
2023-03-05T05:07:01.857Z,34.200
2023-03-05T05:07:47.601Z,33.500
2023-03-05T05:08:32.926Z,37.800
2023-03-05T05:09:26.135Z,36.000
2023-03-05T05:10:41.577Z,36.900
2023-03-05T05:11:33.197Z,38.000
2023-03-05T05:12:26.426Z,34.800
2023-03-05T05:13:29.097Z,32.200
2023-03-05T05:14:19.491Z,34.900
2023-03-05T05:15:33.125Z,34.300
2023-03-05T05:16:21.417Z,31.200
2023-03-05T05:17:45.341Z,35.100
2023-03-05T05:18:36.136Z,40.200
2023-03-05T05:19:29.662Z,36.100
2023-03-05T05:20:22.815Z,34.300
2023-03-05T05:21:24.278Z,34.900
2023-03-05T05:22:37.077Z,32.400
2023-03-05T05:23:55.662Z,34.200
2023-03-05T05:24:47.889Z,34.200
2023-03-05T05:25:41.859Z,36.100
2023-03-05T05:26:34.816Z,35.500
2023-03-05T05:27:20.572Z,41.100
2023-03-05T05:28:55.069Z,41.000
2023-03-05T05:29:20.644Z,40.750
2023-03-05T05:30:28.071Z,42.600
2023-03-05T05:31:20.232Z,41.250
2023-03-05T05:32:34.609Z,39.300
2023-03-05T05:33:38.488Z,41.500
2023-03-05T05:34:31.595Z,41.000
2023-03-05T05:35:22.442Z,40.400
2023-03-05T05:36:25.285Z,38.800
2023-03-05T05:37:30.675Z,37.900
2023-03-05T05:38:39.921Z,41.850
2023-03-05T05:39:49.048Z,39.700
2023-03-05T05:40:40.704Z,35.600
2023-03-05T05:41:29.929Z,36.700
2023-03-05T05:42:28.461Z,33.900
2023-03-05T05:43:19.808Z,36.950
2023-03-05T05:44:22.859Z,34.200
2023-03-05T05:46:00.386Z,36.450
2023-03-05T05:46:56.014Z,37.650
2023-03-05T05:47:41.214Z,33.700
2023-03-05T05:48:23.885Z,33.100
2023-03-05T05:49:30.770Z,32.100
2023-03-05T05:50:24.050Z,38.800
2023-03-05T05:51:29.292Z,37.200
2023-03-05T05:52:19.793Z,39.200
2023-03-05T05:53:59.337Z,40.500
2023-03-05T05:54:30.203Z,41.300
2023-03-05T05:55:33.273Z,42.900
2023-03-05T05:56:36.976Z,41.400
2023-03-05T05:57:27.980Z,37.600
2023-03-05T05:58:22.950Z,36.000
2023-03-05T05:59:27.716Z,36.600
2023-03-05T06:00:32.112Z,38.400
2023-03-05T06:01:49.800Z,38.150
2023-03-05T06:02:36.287Z,38.600
2023-03-05T06:03:23.283Z,36.000
2023-03-05T06:04:31.803Z,40.500
2023-03-05T06:05:28.890Z,38.500
2023-03-05T06:06:29.683Z,35.700
2023-03-05T06:07:20.734Z,38.500
2023-03-05T06:08:52.748Z,39.400
2023-03-05T06:09:40.074Z,39.300
2023-03-05T06:10:24.628Z,39.000
2023-03-05T06:11:29.767Z,39.950
2023-03-05T06:12:41.611Z,44.000
2023-03-05T06:13:21.494Z,43.700
2023-03-05T06:14:19.459Z,43.250
2023-03-05T06:16:21.149Z,45.300
2023-03-05T06:17:31.210Z,39.200
2023-03-05T06:18:41.169Z,42.000
2023-03-05T06:19:34.037Z,39.800
2023-03-05T06:20:26.953Z,42.300
2023-03-05T06:21:22.517Z,39.200
2023-03-05T06:22:22.452Z,40.500
2023-03-05T06:23:40.572Z,40.850
2023-03-05T06:24:33.018Z,39.800
2023-03-05T06:25:45.166Z,39.950
2023-03-05T06:26:38.081Z,39.700
2023-03-05T06:27:40.260Z,37.500
2023-03-05T06:28:25.686Z,42.200
2023-03-05T06:29:29.957Z,43.100
2023-03-05T06:30:19.925Z,45.000
2023-03-05T06:31:37.404Z,34.800
2023-03-05T06:32:20.757Z,39.900
2023-03-05T06:33:25.334Z,40.600
2023-03-05T06:34:38.325Z,44.700
2023-03-05T06:35:30.804Z,44.500
2023-03-05T06:36:20.834Z,49.700
2023-03-05T06:37:24.572Z,44.850
2023-03-05T06:38:37.294Z,40.100
2023-03-05T06:39:23.591Z,47.400
2023-03-05T06:40:42.172Z,40.450
2023-03-05T06:41:39.075Z,44.700
2023-03-05T06:42:32.760Z,41.900
2023-03-05T06:43:24.260Z,40.000
2023-03-05T06:44:29.516Z,43.000
2023-03-05T06:45:34.858Z,43.600
2023-03-05T06:46:26.482Z,38.750
2023-03-05T06:47:50.369Z,45.200
2023-03-05T06:48:42.975Z,39.900
2023-03-05T06:49:34.981Z,38.000
2023-03-05T06:50:22.727Z,38.150
2023-03-05T06:51:22.012Z,41.100
2023-03-05T06:52:24.999Z,39.250
2023-03-05T06:54:01.247Z,41.900
2023-03-05T06:54:54.227Z,41.500
2023-03-05T06:55:47.572Z,36.100
2023-03-05T06:56:32.149Z,37.800
2023-03-05T06:57:27.033Z,40.600
2023-03-05T06:58:24.739Z,34.300
2023-03-05T06:59:46.616Z,38.850
2023-03-05T07:00:25.576Z,35.200
2023-03-05T07:01:22.532Z,35.500
2023-03-05T07:02:36.265Z,40.400
2023-03-05T07:03:45.084Z,34.100
2023-03-05T07:04:31.244Z,39.600
2023-03-05T07:05:29.645Z,39.000
2023-03-05T07:06:22.136Z,39.700
2023-03-05T07:07:30.915Z,43.050
2023-03-05T07:08:23.177Z,37.000
2023-03-05T07:09:57.231Z,41.850
2023-03-05T07:10:45.459Z,43.350
2023-03-05T07:11:33.049Z,46.400
2023-03-05T07:12:32.374Z,41.400
2023-03-05T07:13:28.180Z,43.600
2023-03-05T07:14:31.710Z,42.800
2023-03-05T07:15:25.681Z,42.300
2023-03-05T07:16:59.368Z,42.250
2023-03-05T07:17:48.781Z,44.400
2023-03-05T07:18:25.282Z,40.400
2023-03-05T07:19:20.586Z,44.500
2023-03-05T07:20:44.247Z,44.800
2023-03-05T07:21:23.880Z,45.500
2023-03-05T07:22:28.075Z,44.700
2023-03-05T07:24:29.232Z,45.750
2023-03-05T07:25:37.641Z,50.900
2023-03-05T07:26:25.176Z,46.600
2023-03-05T07:27:35.384Z,46.850
2023-03-05T07:28:26.592Z,44.400
2023-03-05T07:29:23.152Z,45.500
2023-03-05T07:30:25.053Z,48.300
2023-03-05T07:31:48.971Z,46.500
2023-03-05T07:32:40.750Z,44.850
2023-03-05T07:33:30.390Z,46.100
2023-03-05T07:34:37.807Z,49.200
2023-03-05T07:35:33.261Z,48.550
2023-03-05T07:36:25.416Z,46.300
2023-03-05T07:37:21.615Z,50.100
2023-03-05T07:38:24.108Z,45.600
2023-03-05T07:39:46.339Z,49.400
2023-03-05T07:40:29.967Z,46.500
2023-03-05T07:41:33.507Z,47.000
2023-03-05T07:42:36.352Z,47.900
2023-03-05T07:43:30.462Z,50.000
2023-03-05T07:44:26.502Z,44.700
2023-03-05T07:45:28.412Z,46.000
2023-03-05T07:46:20.153Z,47.700
2023-03-05T07:47:34.936Z,45.850
2023-03-05T07:48:20.472Z,43.200
2023-03-05T07:49:40.794Z,47.250
2023-03-05T07:50:33.337Z,46.900
2023-03-05T07:51:24.696Z,45.100
2023-03-05T07:52:31.376Z,46.300
2023-03-05T07:53:24.210Z,48.600
2023-03-05T07:54:36.136Z,46.100
2023-03-05T07:55:23.042Z,48.850
2023-03-05T07:56:57.551Z,47.700
2023-03-05T07:57:20.329Z,45.500
2023-03-05T07:58:34.382Z,44.900
2023-03-05T07:59:23.096Z,48.800
2023-03-05T08:00:30.254Z,47.300
2023-03-05T08:01:21.465Z,47.350
2023-03-05T08:02:26.286Z,50.700
2023-03-05T08:03:26.141Z,44.700
2023-03-05T08:04:41.999Z,45.350
2023-03-05T08:05:34.901Z,47.300
2023-03-05T08:06:21.542Z,48.100
2023-03-05T08:07:32.251Z,49.250
2023-03-05T08:09:29.633Z,47.650
2023-03-05T08:10:45.847Z,44.700
2023-03-05T08:11:44.195Z,45.700
2023-03-05T08:12:38.795Z,43.400
2023-03-05T08:13:23.657Z,50.700
2023-03-05T08:14:24.773Z,48.850
2023-03-05T08:15:30.761Z,50.000
2023-03-05T08:16:23.332Z,50.400
2023-03-05T08:17:56.216Z,52.350
2023-03-05T08:18:49.468Z,46.450
2023-03-05T08:19:43.124Z,51.100
2023-03-05T08:20:29.494Z,49.800
2023-03-05T08:21:26.602Z,48.800
2023-03-05T08:22:20.494Z,47.900
2023-03-05T08:23:27.241Z,49.200
2023-03-05T08:24:21.415Z,49.000
2023-03-05T08:25:53.383Z,45.150
2023-03-05T08:26:34.330Z,51.500
2023-03-05T08:27:31.476Z,47.900
2023-03-05T08:28:32.369Z,50.700
2023-03-05T08:29:24.461Z,50.200
2023-03-05T08:30:32.034Z,51.100
2023-03-05T08:31:24.818Z,48.000
2023-03-05T08:32:38.512Z,45.900
2023-03-05T08:33:51.449Z,45.200
2023-03-05T08:34:33.549Z,46.800
2023-03-05T08:35:22.130Z,45.200
2023-03-05T08:36:29.951Z,47.500
2023-03-05T08:37:22.895Z,49.400
2023-03-05T08:38:29.127Z,50.500
2023-03-05T08:39:21.318Z,55.400
2023-03-05T08:40:53.696Z,45.600
2023-03-05T08:41:36.936Z,43.800
2023-03-05T08:42:23.894Z,43.000
2023-03-05T08:43:33.810Z,49.200
2023-03-05T08:44:26.752Z,49.300
2023-03-05T08:45:32.281Z,48.700
2023-03-05T08:46:25.551Z,51.850
2023-03-05T08:47:53.648Z,50.100
2023-03-05T08:48:29.093Z,53.100
2023-03-05T08:49:25.961Z,52.350
2023-03-05T08:50:38.016Z,47.700
2023-03-05T08:51:45.075Z,51.700
2023-03-05T08:52:23.518Z,48.400
2023-03-05T08:53:20.880Z,48.500
2023-03-05T08:54:22.929Z,50.000
2023-03-05T08:55:45.115Z,47.550
2023-03-05T08:56:30.317Z,51.500
2023-03-05T08:57:40.915Z,49.050
2023-03-05T08:58:33.074Z,48.000
2023-03-05T08:59:30.285Z,51.700
2023-03-05T09:00:23.553Z,51.000
2023-03-05T09:01:29.352Z,48.400
2023-03-05T09:02:22.680Z,44.150
2023-03-05T09:03:33.320Z,45.350
2023-03-05T09:04:45.315Z,46.900
2023-03-05T09:05:31.114Z,47.000
2023-03-05T09:06:42.002Z,50.900
2023-03-05T09:07:24.169Z,51.500
2023-03-05T09:08:33.753Z,51.950
2023-03-05T09:09:24.401Z,48.500
2023-03-05T09:10:21.828Z,49.600
2023-03-05T09:11:21.679Z,50.950
2023-03-05T09:12:42.666Z,51.450
2023-03-05T09:13:35.247Z,48.300
2023-03-05T09:14:31.440Z,52.800
2023-03-05T09:15:20.209Z,55.200
2023-03-05T09:16:24.944Z,51.750
2023-03-05T09:17:23.182Z,50.600
2023-03-05T09:18:24.737Z,49.900
2023-03-05T09:19:45.951Z,51.900
2023-03-05T09:20:39.522Z,54.000
2023-03-05T09:21:33.395Z,54.700
2023-03-05T09:22:22.111Z,51.800
2023-03-05T09:23:32.684Z,51.700
2023-03-05T09:24:29.181Z,56.750
2023-03-05T09:25:28.496Z,54.050
2023-03-05T09:26:50.179Z,53.800
2023-03-05T09:27:23.763Z,53.000
2023-03-05T09:28:38.004Z,53.450
2023-03-05T09:29:23.962Z,55.200
2023-03-05T09:30:20.786Z,54.700
2023-03-05T09:31:45.713Z,55.100
2023-03-05T09:32:24.479Z,52.700
2023-03-05T09:33:29.983Z,54.100
2023-03-05T09:34:41.868Z,57.900
2023-03-05T09:35:40.449Z,53.500
2023-03-05T09:36:27.143Z,54.200
2023-03-05T09:37:24.346Z,57.500
2023-03-05T09:38:34.360Z,56.250
2023-03-05T09:39:28.858Z,58.000
2023-03-05T09:40:20.493Z,57.500
2023-03-05T09:41:51.878Z,57.700
2023-03-05T09:42:44.624Z,55.600
2023-03-05T09:43:30.588Z,56.200
2023-03-05T09:44:24.188Z,53.900
2023-03-05T09:45:21.480Z,57.200
2023-03-05T09:46:31.264Z,52.900
2023-03-05T09:47:26.826Z,56.450
2023-03-05T09:48:44.810Z,57.700
2023-03-05T09:49:48.251Z,52.800
2023-03-05T09:50:32.981Z,57.250
2023-03-05T09:51:33.124Z,56.300
2023-03-05T09:52:25.679Z,52.800
2023-03-05T09:53:23.289Z,57.100
2023-03-05T09:54:29.332Z,53.550
2023-03-05T09:55:21.567Z,54.000
2023-03-05T09:56:35.299Z,53.900
2023-03-05T09:57:45.369Z,53.000
2023-03-05T09:58:23.535Z,54.850
2023-03-05T09:59:31.378Z,53.750
2023-03-05T10:00:22.593Z,54.800
2023-03-05T10:01:29.608Z,53.900
2023-03-05T10:02:28.498Z,52.300
2023-03-05T10:03:25.002Z,53.900
2023-03-05T10:04:36.090Z,51.700
2023-03-05T10:05:24.984Z,51.700
2023-03-05T10:06:28.425Z,52.750
2023-03-05T10:07:24.532Z,51.500
2023-03-05T10:08:21.507Z,54.500
2023-03-05T10:09:20.218Z,51.900
2023-03-05T10:10:22.801Z,51.200
2023-03-05T10:11:42.172Z,52.700
2023-03-05T10:12:24.084Z,51.000
2023-03-05T10:13:39.249Z,52.200
2023-03-05T10:14:31.952Z,50.600
2023-03-05T10:15:25.658Z,50.800
2023-03-05T10:16:23.032Z,54.700
2023-03-05T10:17:29.875Z,55.500
2023-03-05T10:18:31.006Z,52.450
2023-03-05T10:19:50.830Z,53.900
2023-03-05T10:20:43.831Z,52.900
2023-03-05T10:21:39.233Z,48.800
2023-03-05T10:22:29.834Z,55.300
2023-03-05T10:23:22.613Z,55.300
2023-03-05T10:24:33.183Z,53.700
2023-03-05T10:25:24.630Z,50.850
2023-03-05T10:26:35.161Z,49.500
2023-03-05T10:27:21.010Z,49.500
2023-03-05T10:28:40.289Z,55.300
2023-03-05T10:29:26.868Z,52.100
2023-03-05T10:30:26.352Z,50.700
2023-03-05T10:31:24.665Z,48.400
2023-03-05T10:32:30.017Z,53.200
2023-03-05T10:33:22.217Z,52.550
2023-03-05T10:34:24.043Z,52.600
2023-03-05T10:35:44.440Z,50.050
2023-03-05T10:36:35.841Z,53.800
2023-03-05T10:37:33.595Z,54.150
2023-03-05T10:38:25.309Z,49.300
2023-03-05T10:39:20.574Z,48.850
2023-03-05T10:40:21.893Z,49.700
2023-03-05T10:41:35.065Z,51.250
2023-03-05T10:42:49.120Z,54.300
2023-03-05T10:43:32.750Z,51.000
2023-03-05T10:44:35.939Z,50.900
2023-03-05T10:45:22.089Z,51.200
2023-03-05T10:46:21.827Z,48.250
2023-03-05T10:47:31.036Z,51.350
2023-03-05T10:48:22.953Z,53.350
2023-03-05T10:49:23.204Z,54.500
2023-03-05T10:50:35.003Z,47.550
2023-03-05T10:51:28.843Z,48.800
2023-03-05T10:52:33.389Z,50.450
2023-03-05T10:53:22.473Z,51.500
2023-03-05T10:54:30.908Z,47.550
2023-03-05T10:55:30.526Z,50.850
2023-03-05T10:56:20.392Z,50.250
2023-03-05T10:57:25.089Z,51.200
2023-03-05T10:58:29.829Z,52.300
2023-03-05T10:59:28.059Z,50.000
2023-03-05T11:00:21.300Z,49.100
2023-03-05T11:01:21.193Z,48.700
2023-03-05T11:02:33.273Z,49.400
2023-03-05T11:03:25.160Z,52.800
2023-03-05T11:04:32.557Z,52.000
2023-03-05T11:05:29.349Z,48.600
2023-03-05T11:06:26.529Z,48.550
2023-03-05T11:07:21.240Z,45.300
2023-03-05T11:08:25.755Z,48.800
2023-03-05T11:09:30.686Z,50.050
2023-03-05T11:10:25.388Z,49.500
2023-03-05T11:11:23.311Z,49.750
2023-03-05T11:12:30.252Z,51.400
2023-03-05T11:13:25.018Z,53.400
2023-03-05T11:14:29.206Z,50.150
2023-03-05T11:15:27.404Z,53.200
2023-03-05T11:16:21.151Z,49.400
2023-03-05T11:17:24.225Z,52.450
2023-03-05T11:18:27.963Z,50.400
2023-03-05T11:19:29.521Z,50.300
2023-03-05T11:20:26.058Z,49.150
2023-03-05T11:21:20.698Z,53.100
2023-03-05T11:22:31.741Z,50.400
2023-03-05T11:23:29.948Z,50.550
2023-03-05T11:24:22.917Z,49.400
2023-03-05T11:25:23.377Z,48.650
2023-03-05T11:26:22.711Z,48.800
2023-03-05T11:27:24.534Z,51.400
2023-03-05T11:28:32.310Z,49.900
2023-03-05T11:29:31.860Z,47.450
2023-03-05T11:30:28.997Z,53.700
2023-03-05T11:31:24.509Z,47.600
2023-03-05T11:32:22.296Z,50.500
2023-03-05T11:33:30.182Z,48.900
2023-03-05T11:34:20.577Z,50.700
2023-03-05T11:35:21.020Z,50.900
2023-03-05T11:36:21.363Z,47.700
2023-03-05T11:37:29.491Z,48.450
2023-03-05T11:38:25.888Z,50.600
2023-03-05T11:39:25.910Z,48.600
2023-03-05T11:40:33.549Z,48.150
2023-03-05T11:41:24.397Z,46.650
2023-03-05T11:42:25.411Z,49.700
2023-03-05T11:43:19.797Z,45.450
2023-03-05T11:44:37.791Z,49.000
2023-03-05T11:45:23.174Z,48.300
2023-03-05T11:46:22.784Z,49.100
2023-03-05T11:47:30.011Z,49.000
2023-03-05T11:48:25.209Z,45.800
2023-03-05T11:49:23.852Z,49.050
2023-03-05T11:50:22.877Z,50.400
2023-03-05T11:51:27.620Z,50.300
2023-03-05T11:52:24.330Z,49.900
2023-03-05T11:53:21.883Z,47.200
2023-03-05T11:54:19.817Z,44.300
2023-03-05T11:55:25.783Z,47.150
2023-03-05T11:56:20.407Z,46.500
2023-03-05T11:57:26.323Z,50.500
2023-03-05T11:58:31.145Z,48.750
2023-03-05T11:59:23.608Z,49.500
2023-03-05T12:00:34.748Z,48.200
2023-03-05T12:01:25.373Z,45.400
2023-03-05T12:02:24.864Z,46.850
2023-03-05T12:03:21.229Z,43.200
2023-03-05T12:04:23.242Z,43.300
2023-03-05T12:05:28.841Z,44.950
2023-03-05T12:06:23.142Z,44.650
2023-03-05T12:07:37.058Z,38.600
2023-03-05T12:08:23.793Z,43.800
2023-03-05T12:09:21.578Z,43.400
2023-03-05T12:10:24.365Z,40.050
2023-03-05T12:11:31.973Z,43.000
2023-03-05T12:12:20.691Z,44.800
2023-03-05T12:13:23.121Z,44.500
2023-03-05T12:14:32.503Z,43.150
2023-03-05T12:15:32.911Z,41.850
2023-03-05T12:16:26.285Z,40.200
2023-03-05T12:17:24.100Z,42.050
2023-03-05T12:18:34.228Z,42.750
2023-03-05T12:19:21.763Z,44.050
2023-03-05T12:20:23.037Z,45.100
2023-03-05T12:21:22.678Z,44.200
2023-03-05T12:22:29.488Z,43.350
2023-03-05T12:23:25.001Z,42.900
2023-03-05T12:24:22.373Z,41.000
2023-03-05T12:25:32.628Z,40.050
2023-03-05T12:26:27.169Z,39.100
2023-03-05T12:27:25.363Z,42.250
2023-03-05T12:28:34.783Z,40.000
2023-03-05T12:29:32.740Z,42.600
2023-03-05T12:30:20.214Z,42.000
2023-03-05T12:31:27.486Z,40.850
2023-03-05T12:32:31.063Z,40.600
2023-03-05T12:33:32.897Z,41.000
2023-03-05T12:34:22.876Z,38.700
2023-03-05T12:35:34.140Z,39.700
2023-03-05T12:36:29.770Z,40.000
2023-03-05T12:37:26.328Z,40.250
2023-03-05T12:38:27.048Z,39.700
2023-03-05T12:39:22.984Z,43.450
2023-03-05T12:40:27.117Z,40.700
2023-03-05T12:41:26.258Z,38.800
2023-03-05T12:42:24.157Z,39.700
2023-03-05T12:43:29.966Z,43.100
2023-03-05T12:44:30.874Z,40.000
2023-03-05T12:45:21.089Z,43.850